sensor_id;sensor_type;location;lat;lon;timestamp;temperature;humidity
48946;DHT22;34999;50.940;3.998;2022-12-11T00:01:17;1.60;99.90
48946;DHT22;34999;50.940;3.998;2022-12-11T00:03:46;1.60;99.90
48946;DHT22;34999;50.940;3.998;2022-12-11T00:06:20;1.50;99.90
48946;DHT22;34999;50.940;3.998;2022-12-11T00:08:51;1.50;99.90
48946;DHT22;34999;50.940;3.998;2022-12-11T00:11:20;1.50;99.90
48946;DHT22;34999;50.940;3.998;2022-12-11T00:13:49;1.60;99.90
48946;DHT22;34999;50.940;3.998;2022-12-11T00:16:19;1.50;99.90
48946;DHT22;34999;50.940;3.998;2022-12-11T00:18:53;1.50;99.90
48946;DHT22;34999;50.940;3.998;2022-12-11T00:21:21;1.50;99.90
48946;DHT22;34999;50.940;3.998;2022-12-11T00:23:49;1.50;99.90
48946;DHT22;34999;50.940;3.998;2022-12-11T00:26:18;1.50;99.90
48946;DHT22;34999;50.940;3.998;2022-12-11T00:28:47;1.50;99.90
48946;DHT22;34999;50.940;3.998;2022-12-11T00:31:17;1.50;99.90
48946;DHT22;34999;50.940;3.998;2022-12-11T00:33:49;1.50;99.90
48946;DHT22;34999;50.940;3.998;2022-12-11T00:36:20;1.50;99.90
48946;DHT22;34999;50.940;3.998;2022-12-11T00:38:50;1.50;99.90
48946;DHT22;34999;50.940;3.998;2022-12-11T00:41:19;1.50;99.90
48946;DHT22;34999;50.940;3.998;2022-12-11T00:43:48;1.50;99.90
48946;DHT22;34999;50.940;3.998;2022-12-11T00:46:16;1.50;99.90
48946;DHT22;34999;50.940;3.998;2022-12-11T00:48:46;1.50;99.90
48946;DHT22;34999;50.940;3.998;2022-12-11T00:51:15;1.50;99.90
48946;DHT22;34999;50.940;3.998;2022-12-11T00:53:44;1.50;99.90
48946;DHT22;34999;50.940;3.998;2022-12-11T00:56:15;1.50;99.90
48946;DHT22;34999;50.940;3.998;2022-12-11T00:58:44;1.50;99.90
48946;DHT22;34999;50.940;3.998;2022-12-11T01:01:14;1.50;99.90
48946;DHT22;34999;50.940;3.998;2022-12-11T01:03:43;1.60;99.90
48946;DHT22;34999;50.940;3.998;2022-12-11T01:06:14;1.60;99.90
48946;DHT22;34999;50.940;3.998;2022-12-11T01:08:44;1.60;99.90
48946;DHT22;34999;50.940;3.998;2022-12-11T01:11:15;1.60;99.90
48946;DHT22;34999;50.940;3.998;2022-12-11T01:13:42;1.70;99.90
48946;DHT22;34999;50.940;3.998;2022-12-11T01:16:14;1.70;99.90
48946;DHT22;34999;50.940;3.998;2022-12-11T01:18:42;1.70;99.90
48946;DHT22;34999;50.940;3.998;2022-12-11T01:21:13;1.70;99.90
48946;DHT22;34999;50.940;3.998;2022-12-11T01:23:42;1.70;99.90
48946;DHT22;34999;50.940;3.998;2022-12-11T01:26:13;1.70;99.90
48946;DHT22;34999;50.940;3.998;2022-12-11T01:28:42;1.70;99.90
48946;DHT22;34999;50.940;3.998;2022-12-11T01:31:11;1.70;99.90
48946;DHT22;34999;50.940;3.998;2022-12-11T01:33:41;1.60;99.90
48946;DHT22;34999;50.940;3.998;2022-12-11T01:36:12;1.70;99.90
48946;DHT22;34999;50.940;3.998;2022-12-11T01:38:43;1.70;99.90
48946;DHT22;34999;50.940;3.998;2022-12-11T01:41:11;1.70;99.90
48946;DHT22;34999;50.940;3.998;2022-12-11T01:43:58;1.70;99.90
48946;DHT22;34999;50.940;3.998;2022-12-11T01:46:27;1.70;99.90
48946;DHT22;34999;50.940;3.998;2022-12-11T01:48:57;1.70;99.90
48946;DHT22;34999;50.940;3.998;2022-12-11T01:51:26;1.60;99.90
48946;DHT22;34999;50.940;3.998;2022-12-11T01:54:00;1.60;99.90
48946;DHT22;34999;50.940;3.998;2022-12-11T01:56:30;1.60;99.90
48946;DHT22;34999;50.940;3.998;2022-12-11T01:59:04;1.60;99.90
48946;DHT22;34999;50.940;3.998;2022-12-11T02:01:37;1.60;99.90
48946;DHT22;34999;50.940;3.998;2022-12-11T02:04:07;1.60;99.90
48946;DHT22;34999;50.940;3.998;2022-12-11T02:06:38;1.60;99.90
48946;DHT22;34999;50.940;3.998;2022-12-11T02:09:10;1.60;99.90
48946;DHT22;34999;50.940;3.998;2022-12-11T02:11:56;1.60;99.90
48946;DHT22;34999;50.940;3.998;2022-12-11T02:14:33;1.60;99.90
48946;DHT22;34999;50.940;3.998;2022-12-11T02:17:08;1.70;99.90
48946;DHT22;34999;50.940;3.998;2022-12-11T02:19:49;1.70;99.90
48946;DHT22;34999;50.940;3.998;2022-12-11T02:22:27;1.60;99.90
48946;DHT22;34999;50.940;3.998;2022-12-11T02:25:12;1.60;99.90
48946;DHT22;34999;50.940;3.998;2022-12-11T02:27:45;1.60;99.90
48946;DHT22;34999;50.940;3.998;2022-12-11T02:30:16;1.60;99.90
48946;DHT22;34999;50.940;3.998;2022-12-11T02:32:46;1.60;99.90
48946;DHT22;34999;50.940;3.998;2022-12-11T02:35:18;1.60;99.90
48946;DHT22;34999;50.940;3.998;2022-12-11T02:37:55;1.60;99.90
48946;DHT22;34999;50.940;3.998;2022-12-11T02:40:26;1.60;99.90
48946;DHT22;34999;50.940;3.998;2022-12-11T02:42:59;1.50;99.90
48946;DHT22;34999;50.940;3.998;2022-12-11T02:45:31;1.50;99.90
48946;DHT22;34999;50.940;3.998;2022-12-11T02:48:02;1.50;99.90
48946;DHT22;34999;50.940;3.998;2022-12-11T02:50:35;1.50;99.90
48946;DHT22;34999;50.940;3.998;2022-12-11T02:53:06;1.50;99.90
48946;DHT22;34999;50.940;3.998;2022-12-11T02:55:35;1.50;99.90
48946;DHT22;34999;50.940;3.998;2022-12-11T02:58:07;1.50;99.90
48946;DHT22;34999;50.940;3.998;2022-12-11T03:00:39;1.50;99.90
48946;DHT22;34999;50.940;3.998;2022-12-11T03:03:07;1.50;99.90
48946;DHT22;34999;50.940;3.998;2022-12-11T03:05:35;1.40;99.90
48946;DHT22;34999;50.940;3.998;2022-12-11T03:08:04;1.50;99.90
48946;DHT22;34999;50.940;3.998;2022-12-11T03:10:33;1.50;99.90
48946;DHT22;34999;50.940;3.998;2022-12-11T03:13:02;1.50;99.90
48946;DHT22;34999;50.940;3.998;2022-12-11T03:15:34;1.60;99.90
48946;DHT22;34999;50.940;3.998;2022-12-11T03:18:11;1.60;99.90
48946;DHT22;34999;50.940;3.998;2022-12-11T03:20:44;1.70;99.90
48946;DHT22;34999;50.940;3.998;2022-12-11T03:23:19;1.60;99.90
48946;DHT22;34999;50.940;3.998;2022-12-11T03:25:53;1.60;99.90
48946;DHT22;34999;50.940;3.998;2022-12-11T03:28:28;1.60;99.90
48946;DHT22;34999;50.940;3.998;2022-12-11T03:30:57;1.50;99.90
48946;DHT22;34999;50.940;3.998;2022-12-11T03:33:34;1.50;99.90
48946;DHT22;34999;50.940;3.998;2022-12-11T03:36:06;1.50;99.90
48946;DHT22;34999;50.940;3.998;2022-12-11T03:38:37;1.50;99.90
48946;DHT22;34999;50.940;3.998;2022-12-11T03:41:09;1.50;99.90
48946;DHT22;34999;50.940;3.998;2022-12-11T03:43:39;1.50;99.90
48946;DHT22;34999;50.940;3.998;2022-12-11T03:46:09;1.50;99.90
48946;DHT22;34999;50.940;3.998;2022-12-11T03:48:43;1.60;99.90
48946;DHT22;34999;50.940;3.998;2022-12-11T03:51:13;1.60;99.90
48946;DHT22;34999;50.940;3.998;2022-12-11T03:53:42;1.60;99.90
48946;DHT22;34999;50.940;3.998;2022-12-11T03:56:13;1.60;99.90
48946;DHT22;34999;50.940;3.998;2022-12-11T03:58:42;1.60;99.90
48946;DHT22;34999;50.940;3.998;2022-12-11T04:01:11;1.60;99.90
48946;DHT22;34999;50.940;3.998;2022-12-11T04:03:40;1.60;99.90
48946;DHT22;34999;50.940;3.998;2022-12-11T04:06:09;1.60;99.90
48946;DHT22;34999;50.940;3.998;2022-12-11T04:08:38;1.60;99.90
48946;DHT22;34999;50.940;3.998;2022-12-11T04:11:06;1.60;99.90
48946;DHT22;34999;50.940;3.998;2022-12-11T04:13:52;1.60;99.90
48946;DHT22;34999;50.940;3.998;2022-12-11T04:16:34;1.60;99.90
48946;DHT22;34999;50.940;3.998;2022-12-11T04:19:07;1.70;99.90
48946;DHT22;34999;50.940;3.998;2022-12-11T04:21:53;1.70;99.90
48946;DHT22;34999;50.940;3.998;2022-12-11T04:24:39;1.60;99.90
48946;DHT22;34999;50.940;3.998;2022-12-11T04:27:07;1.60;99.90
48946;DHT22;34999;50.940;3.998;2022-12-11T04:29:35;1.60;99.90
48946;DHT22;34999;50.940;3.998;2022-12-11T04:32:04;1.60;99.90
48946;DHT22;34999;50.940;3.998;2022-12-11T04:34:33;1.60;99.90
48946;DHT22;34999;50.940;3.998;2022-12-11T04:37:02;1.70;99.90
48946;DHT22;34999;50.940;3.998;2022-12-11T04:39:30;1.60;99.90
48946;DHT22;34999;50.940;3.998;2022-12-11T04:41:58;1.70;99.90
48946;DHT22;34999;50.940;3.998;2022-12-11T04:44:27;1.70;99.90
48946;DHT22;34999;50.940;3.998;2022-12-11T04:46:55;1.70;99.90
48946;DHT22;34999;50.940;3.998;2022-12-11T04:49:23;1.60;99.90
48946;DHT22;34999;50.940;3.998;2022-12-11T04:51:53;1.60;99.90
48946;DHT22;34999;50.940;3.998;2022-12-11T04:54:21;1.60;99.90
48946;DHT22;34999;50.940;3.998;2022-12-11T04:56:50;1.60;99.90
48946;DHT22;34999;50.940;3.998;2022-12-11T04:59:18;1.60;99.90
48946;DHT22;34999;50.940;3.998;2022-12-11T05:01:47;1.60;99.90
48946;DHT22;34999;50.940;3.998;2022-12-11T05:04:16;1.70;99.90
48946;DHT22;34999;50.940;3.998;2022-12-11T05:06:48;1.60;99.90
48946;DHT22;34999;50.940;3.998;2022-12-11T05:09:18;1.60;99.90
48946;DHT22;34999;50.940;3.998;2022-12-11T05:11:47;1.60;99.90
48946;DHT22;34999;50.940;3.998;2022-12-11T05:14:15;1.60;99.90
48946;DHT22;34999;50.940;3.998;2022-12-11T05:16:44;1.60;99.90
48946;DHT22;34999;50.940;3.998;2022-12-11T05:19:12;1.70;99.90
48946;DHT22;34999;50.940;3.998;2022-12-11T05:21:40;1.70;99.90
48946;DHT22;34999;50.940;3.998;2022-12-11T05:24:09;1.70;99.90
48946;DHT22;34999;50.940;3.998;2022-12-11T05:26:38;1.60;99.90
48946;DHT22;34999;50.940;3.998;2022-12-11T05:29:07;1.70;99.90
48946;DHT22;34999;50.940;3.998;2022-12-11T05:31:35;1.70;99.90
48946;DHT22;34999;50.940;3.998;2022-12-11T05:34:04;1.60;99.90
48946;DHT22;34999;50.940;3.998;2022-12-11T05:36:33;1.60;99.90
48946;DHT22;34999;50.940;3.998;2022-12-11T05:39:02;1.60;99.90
48946;DHT22;34999;50.940;3.998;2022-12-11T05:41:31;1.60;99.90
48946;DHT22;34999;50.940;3.998;2022-12-11T05:44:01;1.60;99.90
48946;DHT22;34999;50.940;3.998;2022-12-11T05:46:31;1.60;99.90
48946;DHT22;34999;50.940;3.998;2022-12-11T05:49:01;1.60;99.90
48946;DHT22;34999;50.940;3.998;2022-12-11T05:51:30;1.60;99.90
48946;DHT22;34999;50.940;3.998;2022-12-11T05:54:00;1.60;99.90
48946;DHT22;34999;50.940;3.998;2022-12-11T05:56:32;1.60;99.90
48946;DHT22;34999;50.940;3.998;2022-12-11T05:59:04;1.60;99.90
48946;DHT22;34999;50.940;3.998;2022-12-11T06:01:35;1.50;99.90
48946;DHT22;34999;50.940;3.998;2022-12-11T06:04:05;1.60;99.90
48946;DHT22;34999;50.940;3.998;2022-12-11T06:06:35;1.50;99.90
48946;DHT22;34999;50.940;3.998;2022-12-11T06:09:04;1.60;99.90
48946;DHT22;34999;50.940;3.998;2022-12-11T06:11:33;1.50;99.90
48946;DHT22;34999;50.940;3.998;2022-12-11T06:14:04;1.50;99.90
48946;DHT22;34999;50.940;3.998;2022-12-11T06:16:32;1.60;99.90
48946;DHT22;34999;50.940;3.998;2022-12-11T06:19:00;1.60;99.90
48946;DHT22;34999;50.940;3.998;2022-12-11T06:21:31;1.60;99.90
48946;DHT22;34999;50.940;3.998;2022-12-11T06:24:01;1.60;99.90
48946;DHT22;34999;50.940;3.998;2022-12-11T06:26:31;1.60;99.90
48946;DHT22;34999;50.940;3.998;2022-12-11T06:29:00;1.60;99.90
48946;DHT22;34999;50.940;3.998;2022-12-11T06:31:34;1.50;99.90
48946;DHT22;34999;50.940;3.998;2022-12-11T06:34:05;1.50;99.90
48946;DHT22;34999;50.940;3.998;2022-12-11T06:36:34;1.50;99.90
48946;DHT22;34999;50.940;3.998;2022-12-11T06:39:02;1.40;99.90
48946;DHT22;34999;50.940;3.998;2022-12-11T06:41:31;1.40;99.90
48946;DHT22;34999;50.940;3.998;2022-12-11T06:43:59;1.40;99.90
48946;DHT22;34999;50.940;3.998;2022-12-11T06:46:28;1.40;99.90
48946;DHT22;34999;50.940;3.998;2022-12-11T06:48:57;1.50;99.90
48946;DHT22;34999;50.940;3.998;2022-12-11T06:51:26;1.50;99.90
48946;DHT22;34999;50.940;3.998;2022-12-11T06:53:55;1.60;99.90
48946;DHT22;34999;50.940;3.998;2022-12-11T06:56:24;1.50;99.90
48946;DHT22;34999;50.940;3.998;2022-12-11T06:58:53;1.60;99.90
48946;DHT22;34999;50.940;3.998;2022-12-11T07:01:24;1.50;99.90
48946;DHT22;34999;50.940;3.998;2022-12-11T07:03:53;1.50;99.90
48946;DHT22;34999;50.940;3.998;2022-12-11T07:06:24;1.50;99.90
48946;DHT22;34999;50.940;3.998;2022-12-11T07:08:52;1.60;99.90
48946;DHT22;34999;50.940;3.998;2022-12-11T07:11:20;1.50;99.90
48946;DHT22;34999;50.940;3.998;2022-12-11T07:13:49;1.50;99.90
48946;DHT22;34999;50.940;3.998;2022-12-11T07:16:18;1.50;99.90
48946;DHT22;34999;50.940;3.998;2022-12-11T07:18:48;1.60;99.90
48946;DHT22;34999;50.940;3.998;2022-12-11T07:21:18;1.50;99.90
48946;DHT22;34999;50.940;3.998;2022-12-11T07:23:48;1.50;99.90
48946;DHT22;34999;50.940;3.998;2022-12-11T07:26:19;1.50;99.90
48946;DHT22;34999;50.940;3.998;2022-12-11T07:28:48;1.50;99.90
48946;DHT22;34999;50.940;3.998;2022-12-11T07:31:20;1.40;99.90
48946;DHT22;34999;50.940;3.998;2022-12-11T07:33:52;1.40;99.90
48946;DHT22;34999;50.940;3.998;2022-12-11T07:36:21;1.40;99.90
48946;DHT22;34999;50.940;3.998;2022-12-11T07:38:52;1.30;99.90
48946;DHT22;34999;50.940;3.998;2022-12-11T07:41:22;1.30;99.90
48946;DHT22;34999;50.940;3.998;2022-12-11T07:43:50;1.30;99.90
48946;DHT22;34999;50.940;3.998;2022-12-11T07:46:24;1.20;99.90
48946;DHT22;34999;50.940;3.998;2022-12-11T07:48:53;1.20;99.90
48946;DHT22;34999;50.940;3.998;2022-12-11T07:51:23;1.20;99.90
48946;DHT22;34999;50.940;3.998;2022-12-11T07:53:56;1.30;99.90
48946;DHT22;34999;50.940;3.998;2022-12-11T07:56:25;1.30;99.90
48946;DHT22;34999;50.940;3.998;2022-12-11T07:58:54;1.30;99.90
48946;DHT22;34999;50.940;3.998;2022-12-11T08:01:24;1.30;99.90
48946;DHT22;34999;50.940;3.998;2022-12-11T08:03:53;1.30;99.90
48946;DHT22;34999;50.940;3.998;2022-12-11T08:06:25;1.30;99.90
48946;DHT22;34999;50.940;3.998;2022-12-11T08:08:56;1.30;99.90
48946;DHT22;34999;50.940;3.998;2022-12-11T08:11:25;1.30;99.90
48946;DHT22;34999;50.940;3.998;2022-12-11T08:13:55;1.30;99.90
48946;DHT22;34999;50.940;3.998;2022-12-11T08:16:23;1.30;99.90
48946;DHT22;34999;50.940;3.998;2022-12-11T08:18:52;1.30;99.90
48946;DHT22;34999;50.940;3.998;2022-12-11T08:21:24;1.20;99.90
48946;DHT22;34999;50.940;3.998;2022-12-11T08:23:55;1.20;99.90
48946;DHT22;34999;50.940;3.998;2022-12-11T08:26:25;1.30;99.90
48946;DHT22;34999;50.940;3.998;2022-12-11T08:28:54;1.30;99.90
48946;DHT22;34999;50.940;3.998;2022-12-11T08:31:23;1.30;99.90
48946;DHT22;34999;50.940;3.998;2022-12-11T08:33:53;1.30;99.90
48946;DHT22;34999;50.940;3.998;2022-12-11T08:36:23;1.30;99.90
48946;DHT22;34999;50.940;3.998;2022-12-11T08:38:54;1.30;99.90
48946;DHT22;34999;50.940;3.998;2022-12-11T08:41:25;1.40;99.90
48946;DHT22;34999;50.940;3.998;2022-12-11T08:43:54;1.40;99.90
48946;DHT22;34999;50.940;3.998;2022-12-11T08:46:25;1.40;99.90
48946;DHT22;34999;50.940;3.998;2022-12-11T08:48:54;1.40;99.90
48946;DHT22;34999;50.940;3.998;2022-12-11T08:51:25;1.40;99.90
48946;DHT22;34999;50.940;3.998;2022-12-11T08:53:56;1.50;99.90
48946;DHT22;34999;50.940;3.998;2022-12-11T08:56:26;1.40;99.90
48946;DHT22;34999;50.940;3.998;2022-12-11T08:58:54;1.40;99.90
48946;DHT22;34999;50.940;3.998;2022-12-11T09:01:27;1.40;99.90
48946;DHT22;34999;50.940;3.998;2022-12-11T09:03:56;1.40;99.90
48946;DHT22;34999;50.940;3.998;2022-12-11T09:06:27;1.40;99.90
48946;DHT22;34999;50.940;3.998;2022-12-11T09:09:00;1.40;99.90
48946;DHT22;34999;50.940;3.998;2022-12-11T09:11:30;1.40;99.90
48946;DHT22;34999;50.940;3.998;2022-12-11T09:14:00;1.40;99.90
48946;DHT22;34999;50.940;3.998;2022-12-11T09:16:34;1.50;99.90
48946;DHT22;34999;50.940;3.998;2022-12-11T09:19:06;1.50;99.90
48946;DHT22;34999;50.940;3.998;2022-12-11T09:21:35;1.50;99.90
48946;DHT22;34999;50.940;3.998;2022-12-11T09:24:05;1.50;99.90
48946;DHT22;34999;50.940;3.998;2022-12-11T09:26:34;1.50;99.90
48946;DHT22;34999;50.940;3.998;2022-12-11T09:29:04;1.50;99.90
48946;DHT22;34999;50.940;3.998;2022-12-11T09:31:35;1.50;99.90
48946;DHT22;34999;50.940;3.998;2022-12-11T09:34:05;1.50;99.90
48946;DHT22;34999;50.940;3.998;2022-12-11T09:36:34;1.60;99.90
48946;DHT22;34999;50.940;3.998;2022-12-11T09:39:07;1.60;99.90
48946;DHT22;34999;50.940;3.998;2022-12-11T09:41:39;1.60;99.90
48946;DHT22;34999;50.940;3.998;2022-12-11T09:44:34;1.60;99.90
48946;DHT22;34999;50.940;3.998;2022-12-11T09:47:20;1.60;99.90
48946;DHT22;34999;50.940;3.998;2022-12-11T09:49:55;1.60;99.90
48946;DHT22;34999;50.940;3.998;2022-12-11T09:52:31;1.60;99.90
48946;DHT22;34999;50.940;3.998;2022-12-11T09:55:10;1.60;99.90
48946;DHT22;34999;50.940;3.998;2022-12-11T09:57:47;1.60;99.90
48946;DHT22;34999;50.940;3.998;2022-12-11T10:00:23;1.60;99.90
48946;DHT22;34999;50.940;3.998;2022-12-11T10:03:19;1.60;99.90
48946;DHT22;34999;50.940;3.998;2022-12-11T10:05:55;1.50;99.90
48946;DHT22;34999;50.940;3.998;2022-12-11T10:08:35;1.50;99.90
48946;DHT22;34999;50.940;3.998;2022-12-11T10:11:24;1.50;99.90
48946;DHT22;34999;50.940;3.998;2022-12-11T10:14:01;1.60;99.90
48946;DHT22;34999;50.940;3.998;2022-12-11T10:16:37;1.60;99.90
48946;DHT22;34999;50.940;3.998;2022-12-11T10:19:13;1.60;99.90
48946;DHT22;34999;50.940;3.998;2022-12-11T10:21:44;1.70;99.90
48946;DHT22;34999;50.940;3.998;2022-12-11T10:24:19;1.70;99.90
48946;DHT22;34999;50.940;3.998;2022-12-11T10:27:14;1.80;99.90
48946;DHT22;34999;50.940;3.998;2022-12-11T10:29:45;1.80;99.90
48946;DHT22;34999;50.940;3.998;2022-12-11T10:32:20;1.90;99.90
48946;DHT22;34999;50.940;3.998;2022-12-11T10:34:56;2.00;99.90
48946;DHT22;34999;50.940;3.998;2022-12-11T10:37:26;2.00;99.90
48946;DHT22;34999;50.940;3.998;2022-12-11T10:39:54;2.00;99.90
48946;DHT22;34999;50.940;3.998;2022-12-11T10:42:24;2.00;99.90
48946;DHT22;34999;50.940;3.998;2022-12-11T10:44:58;2.00;99.90
48946;DHT22;34999;50.940;3.998;2022-12-11T10:47:27;2.10;99.90
48946;DHT22;34999;50.940;3.998;2022-12-11T10:49:57;2.00;99.90
48946;DHT22;34999;50.940;3.998;2022-12-11T10:52:31;2.10;99.90
48946;DHT22;34999;50.940;3.998;2022-12-11T10:55:02;2.10;99.90
48946;DHT22;34999;50.940;3.998;2022-12-11T10:57:34;2.10;99.90
48946;DHT22;34999;50.940;3.998;2022-12-11T11:00:30;2.10;99.90
48946;DHT22;34999;50.940;3.998;2022-12-11T11:03:20;2.10;99.90
48946;DHT22;34999;50.940;3.998;2022-12-11T11:05:49;2.20;99.90
48946;DHT22;34999;50.940;3.998;2022-12-11T11:08:39;2.20;99.90
48946;DHT22;34999;50.940;3.998;2022-12-11T11:11:20;2.40;99.90
48946;DHT22;34999;50.940;3.998;2022-12-11T11:13:51;2.30;99.90
48946;DHT22;34999;50.940;3.998;2022-12-11T11:16:21;2.30;99.90
48946;DHT22;34999;50.940;3.998;2022-12-11T11:18:52;2.30;99.90
48946;DHT22;34999;50.940;3.998;2022-12-11T11:21:22;2.20;99.90
48946;DHT22;34999;50.940;3.998;2022-12-11T11:23:52;2.20;99.90
48946;DHT22;34999;50.940;3.998;2022-12-11T11:26:21;2.20;99.90
48946;DHT22;34999;50.940;3.998;2022-12-11T11:29:24;2.10;99.90
48946;DHT22;34999;50.940;3.998;2022-12-11T11:31:53;2.10;99.90
48946;DHT22;34999;50.940;3.998;2022-12-11T11:34:21;2.00;99.90
48946;DHT22;34999;50.940;3.998;2022-12-11T11:36:55;2.00;99.90
48946;DHT22;34999;50.940;3.998;2022-12-11T11:39:30;1.90;99.90
48946;DHT22;34999;50.940;3.998;2022-12-11T11:42:06;1.90;99.90
48946;DHT22;34999;50.940;3.998;2022-12-11T11:44:43;2.00;99.90
48946;DHT22;34999;50.940;3.998;2022-12-11T11:47:16;2.00;99.90
48946;DHT22;34999;50.940;3.998;2022-12-11T11:49:54;2.10;99.90
48946;DHT22;34999;50.940;3.998;2022-12-11T11:52:29;2.00;99.90
48946;DHT22;34999;50.940;3.998;2022-12-11T11:55:06;2.00;99.90
48946;DHT22;34999;50.940;3.998;2022-12-11T11:57:41;2.00;99.90
48946;DHT22;34999;50.940;3.998;2022-12-11T12:00:18;2.00;99.90
48946;DHT22;34999;50.940;3.998;2022-12-11T12:02:48;2.00;99.90
48946;DHT22;34999;50.940;3.998;2022-12-11T12:05:24;2.00;99.90
48946;DHT22;34999;50.940;3.998;2022-12-11T12:08:03;1.90;99.90
48946;DHT22;34999;50.940;3.998;2022-12-11T12:10:43;1.80;99.90
48946;DHT22;34999;50.940;3.998;2022-12-11T12:13:19;1.70;99.90
48946;DHT22;34999;50.940;3.998;2022-12-11T12:16:21;1.80;99.90
48946;DHT22;34999;50.940;3.998;2022-12-11T12:19:19;1.80;99.90
48946;DHT22;34999;50.940;3.998;2022-12-11T12:21:54;1.80;99.90
48946;DHT22;34999;50.940;3.998;2022-12-11T12:24:31;1.80;99.90
48946;DHT22;34999;50.940;3.998;2022-12-11T12:27:10;1.90;99.90
48946;DHT22;34999;50.940;3.998;2022-12-11T12:30:03;1.80;99.90
48946;DHT22;34999;50.940;3.998;2022-12-11T12:32:40;1.80;99.90
48946;DHT22;34999;50.940;3.998;2022-12-11T12:35:19;1.90;99.90
48946;DHT22;34999;50.940;3.998;2022-12-11T12:37:55;1.90;99.90
48946;DHT22;34999;50.940;3.998;2022-12-11T12:40:29;1.80;99.90
48946;DHT22;34999;50.940;3.998;2022-12-11T12:43:04;1.80;99.90
48946;DHT22;34999;50.940;3.998;2022-12-11T12:45:45;1.80;99.90
48946;DHT22;34999;50.940;3.998;2022-12-11T12:48:17;1.80;99.90
48946;DHT22;34999;50.940;3.998;2022-12-11T12:50:47;1.80;99.90
48946;DHT22;34999;50.940;3.998;2022-12-11T12:53:19;1.70;99.90
48946;DHT22;34999;50.940;3.998;2022-12-11T12:55:49;1.70;99.90
48946;DHT22;34999;50.940;3.998;2022-12-11T12:58:25;1.70;99.90
48946;DHT22;34999;50.940;3.998;2022-12-11T13:00:53;1.70;99.90
48946;DHT22;34999;50.940;3.998;2022-12-11T13:03:35;1.80;99.90
48946;DHT22;34999;50.940;3.998;2022-12-11T13:06:05;1.80;99.90
48946;DHT22;34999;50.940;3.998;2022-12-11T13:08:43;1.80;99.90
48946;DHT22;34999;50.940;3.998;2022-12-11T13:11:15;1.80;99.90
48946;DHT22;34999;50.940;3.998;2022-12-11T13:13:47;1.70;99.90
48946;DHT22;34999;50.940;3.998;2022-12-11T13:16:26;1.70;99.90
48946;DHT22;34999;50.940;3.998;2022-12-11T13:19:14;1.70;99.90
48946;DHT22;34999;50.940;3.998;2022-12-11T13:21:54;1.70;99.90
48946;DHT22;34999;50.940;3.998;2022-12-11T13:24:28;1.70;99.90
48946;DHT22;34999;50.940;3.998;2022-12-11T13:27:08;1.60;99.90
48946;DHT22;34999;50.940;3.998;2022-12-11T13:29:38;1.60;99.90
48946;DHT22;34999;50.940;3.998;2022-12-11T13:32:21;1.70;99.90
48946;DHT22;34999;50.940;3.998;2022-12-11T13:34:54;1.70;99.90
48946;DHT22;34999;50.940;3.998;2022-12-11T13:37:25;1.70;99.90
48946;DHT22;34999;50.940;3.998;2022-12-11T13:39:55;1.70;99.90
48946;DHT22;34999;50.940;3.998;2022-12-11T13:42:28;1.70;99.90
48946;DHT22;34999;50.940;3.998;2022-12-11T13:44:59;1.80;99.90
48946;DHT22;34999;50.940;3.998;2022-12-11T13:47:30;1.80;99.90
48946;DHT22;34999;50.940;3.998;2022-12-11T13:50:13;1.80;99.90
48946;DHT22;34999;50.940;3.998;2022-12-11T13:52:52;1.80;99.90
48946;DHT22;34999;50.940;3.998;2022-12-11T13:55:23;1.70;99.90
48946;DHT22;34999;50.940;3.998;2022-12-11T13:57:52;1.70;99.90
48946;DHT22;34999;50.940;3.998;2022-12-11T14:00:22;1.60;99.90
48946;DHT22;34999;50.940;3.998;2022-12-11T14:02:52;1.70;99.90
48946;DHT22;34999;50.940;3.998;2022-12-11T14:05:23;1.70;99.90
48946;DHT22;34999;50.940;3.998;2022-12-11T14:07:56;1.70;99.90
48946;DHT22;34999;50.940;3.998;2022-12-11T14:10:26;1.60;99.90
48946;DHT22;34999;50.940;3.998;2022-12-11T14:13:00;1.60;99.90
48946;DHT22;34999;50.940;3.998;2022-12-11T14:15:31;1.60;99.90
48946;DHT22;34999;50.940;3.998;2022-12-11T14:18:00;1.70;99.90
48946;DHT22;34999;50.940;3.998;2022-12-11T14:20:31;1.60;99.90
48946;DHT22;34999;50.940;3.998;2022-12-11T14:23:05;1.60;99.90
48946;DHT22;34999;50.940;3.998;2022-12-11T14:25:33;1.60;99.90
48946;DHT22;34999;50.940;3.998;2022-12-11T14:28:02;1.60;99.90
48946;DHT22;34999;50.940;3.998;2022-12-11T14:30:43;1.70;99.90
48946;DHT22;34999;50.940;3.998;2022-12-11T14:33:13;1.70;99.90
48946;DHT22;34999;50.940;3.998;2022-12-11T14:35:45;1.70;99.90
48946;DHT22;34999;50.940;3.998;2022-12-11T14:38:18;1.70;99.90
48946;DHT22;34999;50.940;3.998;2022-12-11T14:40:51;1.70;99.90
48946;DHT22;34999;50.940;3.998;2022-12-11T14:43:27;1.70;99.90
48946;DHT22;34999;50.940;3.998;2022-12-11T14:46:00;1.70;99.90
48946;DHT22;34999;50.940;3.998;2022-12-11T14:48:35;1.70;99.90
48946;DHT22;34999;50.940;3.998;2022-12-11T14:51:13;1.70;99.90
48946;DHT22;34999;50.940;3.998;2022-12-11T14:53:46;1.80;99.90
48946;DHT22;34999;50.940;3.998;2022-12-11T14:56:17;1.80;99.90
48946;DHT22;34999;50.940;3.998;2022-12-11T14:58:50;1.70;99.90
48946;DHT22;34999;50.940;3.998;2022-12-11T15:01:22;1.80;99.90
48946;DHT22;34999;50.940;3.998;2022-12-11T15:04:03;1.70;99.90
48946;DHT22;34999;50.940;3.998;2022-12-11T15:06:41;1.80;99.90
48946;DHT22;34999;50.940;3.998;2022-12-11T15:09:17;1.80;99.90
48946;DHT22;34999;50.940;3.998;2022-12-11T15:11:48;1.80;99.90
48946;DHT22;34999;50.940;3.998;2022-12-11T15:14:18;1.80;99.90
48946;DHT22;34999;50.940;3.998;2022-12-11T15:16:48;1.70;99.90
48946;DHT22;34999;50.940;3.998;2022-12-11T15:19:20;1.70;99.90
48946;DHT22;34999;50.940;3.998;2022-12-11T15:21:50;1.60;99.90
48946;DHT22;34999;50.940;3.998;2022-12-11T15:24:25;1.60;99.90
48946;DHT22;34999;50.940;3.998;2022-12-11T15:26:58;1.60;99.90
48946;DHT22;34999;50.940;3.998;2022-12-11T15:29:32;1.60;99.90
48946;DHT22;34999;50.940;3.998;2022-12-11T15:32:11;1.60;99.90
48946;DHT22;34999;50.940;3.998;2022-12-11T15:34:45;1.50;99.90
48946;DHT22;34999;50.940;3.998;2022-12-11T15:37:21;1.50;99.90
48946;DHT22;34999;50.940;3.998;2022-12-11T15:39:50;1.50;99.90
48946;DHT22;34999;50.940;3.998;2022-12-11T15:42:23;1.50;99.90
48946;DHT22;34999;50.940;3.998;2022-12-11T15:44:52;1.50;99.90
48946;DHT22;34999;50.940;3.998;2022-12-11T15:47:24;1.50;99.90
48946;DHT22;34999;50.940;3.998;2022-12-11T15:49:54;1.40;99.90
48946;DHT22;34999;50.940;3.998;2022-12-11T15:52:24;1.40;99.90
48946;DHT22;34999;50.940;3.998;2022-12-11T15:54:53;1.40;99.90
48946;DHT22;34999;50.940;3.998;2022-12-11T15:57:23;1.40;99.90
48946;DHT22;34999;50.940;3.998;2022-12-11T15:59:53;1.40;99.90
48946;DHT22;34999;50.940;3.998;2022-12-11T16:02:21;1.40;99.90
48946;DHT22;34999;50.940;3.998;2022-12-11T16:04:52;1.30;99.90
48946;DHT22;34999;50.940;3.998;2022-12-11T16:07:24;1.30;99.90
48946;DHT22;34999;50.940;3.998;2022-12-11T16:09:52;1.30;99.90
48946;DHT22;34999;50.940;3.998;2022-12-11T16:12:21;1.30;99.90
48946;DHT22;34999;50.940;3.998;2022-12-11T16:14:49;1.20;99.90
48946;DHT22;34999;50.940;3.998;2022-12-11T16:17:17;1.20;99.90